createdAt,value
2023-01-23T00:00:55.206Z,97779.31
2023-01-23T00:03:54.088Z,97778.69
2023-01-23T00:06:50.834Z,97783.53
2023-01-23T00:09:47.617Z,97786.16
2023-01-23T00:12:45.746Z,97776.66
2023-01-23T00:15:42.577Z,97780.09
2023-01-23T00:18:39.573Z,97780.94
2023-01-23T00:21:36.298Z,97786.59
2023-01-23T00:24:33.130Z,97773.00
2023-01-23T00:27:29.915Z,97766.34
2023-01-23T00:30:26.672Z,97768.34
2023-01-23T00:33:23.425Z,97780.91
2023-01-23T00:36:20.159Z,97769.59
2023-01-23T00:39:19.175Z,97776.84
2023-01-23T00:42:15.922Z,97778.28
2023-01-23T00:45:12.712Z,97779.28
2023-01-23T00:48:09.492Z,97773.41
2023-01-23T00:51:06.456Z,97773.03
2023-01-23T00:54:03.447Z,97779.25
2023-01-23T00:57:00.177Z,97794.44
2023-01-23T00:59:56.931Z,97785.56
2023-01-23T01:02:53.748Z,97795.66
2023-01-23T01:05:50.752Z,97791.41
2023-01-23T01:08:47.716Z,97799.09
2023-01-23T01:11:44.479Z,97793.81
2023-01-23T01:14:41.277Z,97800.13
2023-01-23T01:17:38.014Z,97805.16
2023-01-23T01:20:34.764Z,97806.59
2023-01-23T01:23:31.515Z,97807.38
2023-01-23T01:26:28.268Z,97810.84
2023-01-23T01:29:25.020Z,97815.09
2023-01-23T01:32:21.799Z,97811.00
2023-01-23T01:35:18.619Z,97812.22
2023-01-23T01:38:15.510Z,97820.13
2023-01-23T01:41:13.185Z,97833.47
2023-01-23T01:44:22.227Z,97835.88
2023-01-23T01:47:18.974Z,97842.56
2023-01-23T01:50:15.826Z,97837.91
2023-01-23T01:53:13.341Z,97835.28
2023-01-23T01:56:14.229Z,97842.97
2023-01-23T01:59:11.811Z,97850.25
2023-01-23T02:02:24.256Z,97858.34
2023-01-23T02:05:33.286Z,97861.13
2023-01-23T02:08:45.713Z,97858.53
2023-01-23T02:11:43.472Z,97857.94
2023-01-23T02:14:40.427Z,97854.53
2023-01-23T02:17:38.224Z,97844.59
2023-01-23T02:20:35.071Z,97848.81
2023-01-23T02:24:00.386Z,97846.78
2023-01-23T02:26:57.303Z,97849.44
2023-01-23T02:29:56.197Z,97850.00
2023-01-23T02:32:52.971Z,97850.44
2023-01-23T02:35:50.623Z,97851.88
2023-01-23T02:38:55.772Z,97857.13
2023-01-23T02:41:52.963Z,97864.59
2023-01-23T02:44:50.156Z,97865.59
2023-01-23T02:47:46.918Z,97861.56
2023-01-23T02:50:46.360Z,97875.13
2023-01-23T02:53:43.864Z,97877.91
2023-01-23T02:56:42.231Z,97878.72
2023-01-23T02:59:57.587Z,97885.44
2023-01-23T03:02:55.488Z,97883.81
2023-01-23T03:05:52.248Z,97885.63
2023-01-23T03:08:49.370Z,97891.53
2023-01-23T03:11:46.898Z,97893.69
2023-01-23T03:14:43.649Z,97895.31
2023-01-23T03:17:40.504Z,97886.03
2023-01-23T03:20:41.022Z,97892.50
2023-01-23T03:23:40.408Z,97889.28
2023-01-23T03:26:41.308Z,97892.91
2023-01-23T03:29:56.710Z,97889.63
2023-01-23T03:32:53.469Z,97901.56
2023-01-23T03:35:50.240Z,97910.47
2023-01-23T03:39:05.446Z,97904.63
2023-01-23T03:42:02.219Z,97909.66
2023-01-23T03:44:58.980Z,97902.22
2023-01-23T03:47:55.739Z,97905.25
2023-01-23T03:50:52.510Z,97900.97
2023-01-23T03:53:49.263Z,97903.84
2023-01-23T03:56:46.035Z,97904.41
2023-01-23T03:59:42.794Z,97906.66
2023-01-23T04:02:39.584Z,97907.84
2023-01-23T04:05:36.337Z,97907.69
2023-01-23T04:08:33.096Z,97904.47
2023-01-23T04:11:29.943Z,97897.16
2023-01-23T04:14:30.436Z,97896.31
2023-01-23T04:17:27.200Z,97905.44
2023-01-23T04:20:23.942Z,97893.06
2023-01-23T04:23:20.971Z,97893.50
2023-01-23T04:26:17.906Z,97882.19
2023-01-23T04:29:14.669Z,97870.47
2023-01-23T04:32:11.414Z,97872.72
2023-01-23T04:35:08.278Z,97883.81
2023-01-23T04:38:05.047Z,97885.25
2023-01-23T04:41:04.103Z,97903.66
2023-01-23T04:44:20.026Z,97899.22
2023-01-23T04:47:16.818Z,97904.47
2023-01-23T04:50:14.056Z,97903.66
2023-01-23T04:53:11.359Z,97907.69
2023-01-23T04:56:08.415Z,97920.22
2023-01-23T04:59:05.339Z,97912.13
2023-01-23T05:02:02.613Z,97914.34
2023-01-23T05:04:59.628Z,97906.69
2023-01-23T05:07:56.444Z,97925.06
2023-01-23T05:10:53.206Z,97927.31
2023-01-23T05:13:49.975Z,97932.38
2023-01-23T05:16:46.714Z,97926.72
2023-01-23T05:19:43.481Z,97930.78
2023-01-23T05:22:52.303Z,97936.19
2023-01-23T05:25:49.328Z,97931.72
2023-01-23T05:28:46.323Z,97926.88
2023-01-23T05:31:43.128Z,97933.38
2023-01-23T05:34:39.993Z,97932.16
2023-01-23T05:37:36.749Z,97929.69
2023-01-23T05:40:33.566Z,97941.03
2023-01-23T05:43:30.321Z,97932.19
2023-01-23T05:46:27.180Z,97934.56
2023-01-23T05:49:24.026Z,97935.78
2023-01-23T05:52:21.882Z,97949.34
2023-01-23T05:55:18.683Z,97951.34
2023-01-23T05:58:16.108Z,97957.41
2023-01-23T06:01:13.011Z,97964.84
2023-01-23T06:04:10.287Z,97969.53
2023-01-23T06:07:12.947Z,97977.44
2023-01-23T06:10:10.194Z,97982.09
2023-01-23T06:13:06.970Z,97973.59
2023-01-23T06:16:03.944Z,97977.44
2023-01-23T06:19:10.006Z,97988.16
2023-01-23T06:22:07.184Z,97986.97
2023-01-23T06:25:04.311Z,97992.75
2023-01-23T06:28:01.292Z,97990.38
2023-01-23T06:31:03.826Z,97988.34
2023-01-23T06:34:01.155Z,98003.06
2023-01-23T06:36:57.896Z,98007.16
2023-01-23T06:39:54.665Z,98004.88
2023-01-23T06:42:54.995Z,98007.31
2023-01-23T06:45:52.254Z,98008.78
2023-01-23T06:48:49.215Z,98017.06
2023-01-23T06:51:45.978Z,98024.31
2023-01-23T06:54:42.750Z,98025.31
2023-01-23T06:57:40.834Z,98026.19
2023-01-23T07:00:37.611Z,98023.53
2023-01-23T07:03:34.355Z,98024.94
2023-01-23T07:06:31.613Z,98026.38
2023-01-23T07:09:28.671Z,98034.88
2023-01-23T07:12:25.427Z,98035.94
2023-01-23T07:15:22.253Z,98037.34
2023-01-23T07:18:19.007Z,98042.41
2023-01-23T07:21:15.752Z,98046.00
2023-01-23T07:24:12.523Z,98053.31
2023-01-23T07:27:09.296Z,98058.00
2023-01-23T07:30:06.579Z,98069.28
2023-01-23T07:33:03.778Z,98068.75
2023-01-23T07:36:00.821Z,98057.84
2023-01-23T07:38:59.002Z,98072.25
2023-01-23T07:41:55.757Z,98078.47
2023-01-23T07:44:52.602Z,98067.44
2023-01-23T07:47:49.386Z,98075.53
2023-01-23T07:50:46.171Z,98077.16
2023-01-23T07:53:43.447Z,98079.66
2023-01-23T07:56:40.473Z,98087.53
2023-01-23T07:59:37.322Z,98086.50
2023-01-23T08:02:34.092Z,98094.81
2023-01-23T08:05:30.896Z,98089.97
2023-01-23T08:08:27.911Z,98092.22
2023-01-23T08:11:26.550Z,98094.41
2023-01-23T08:14:23.453Z,98097.25
2023-01-23T08:17:21.094Z,98102.50
2023-01-23T08:20:18.580Z,98097.88
2023-01-23T08:23:15.567Z,98100.28
2023-01-23T08:26:14.760Z,98104.38
2023-01-23T08:29:12.327Z,98112.88
2023-01-23T08:32:09.351Z,98109.31
2023-01-23T08:35:06.493Z,98104.78
2023-01-23T08:38:03.717Z,98111.69
2023-01-23T08:41:02.905Z,98107.25
2023-01-23T08:44:01.690Z,98110.72
2023-01-23T08:46:58.506Z,98103.25
2023-01-23T08:49:55.770Z,98109.53
2023-01-23T08:52:52.574Z,98101.84
2023-01-23T08:55:49.369Z,98106.81
2023-01-23T08:58:48.929Z,98107.78
2023-01-23T09:01:47.927Z,98100.97
2023-01-23T09:04:44.699Z,98100.97
2023-01-23T09:07:41.453Z,98102.44
2023-01-23T09:10:38.335Z,98102.06
2023-01-23T09:13:35.640Z,98104.28
2023-01-23T09:16:32.427Z,98104.22
2023-01-23T09:19:32.444Z,98108.16
2023-01-23T09:22:29.407Z,98104.31
2023-01-23T09:25:26.189Z,98098.44
2023-01-23T09:28:22.989Z,98117.34
2023-01-23T09:31:20.003Z,98109.44
2023-01-23T09:34:17.366Z,98117.78
2023-01-23T09:37:15.124Z,98105.88
2023-01-23T09:40:17.553Z,98110.13
2023-01-23T09:43:17.788Z,98113.41
2023-01-23T09:46:40.816Z,98107.28
2023-01-23T09:50:02.777Z,98099.78
2023-01-23T09:53:05.762Z,98097.97
2023-01-23T09:56:11.265Z,98101.00
2023-01-23T09:59:14.692Z,98093.06
2023-01-23T10:02:20.293Z,98093.88
2023-01-23T10:05:18.502Z,98105.75
2023-01-23T10:08:40.397Z,98092.63
2023-01-23T10:11:37.066Z,98088.97
2023-01-23T10:14:58.533Z,98094.28
2023-01-23T10:18:23.313Z,98103.69
2023-01-23T10:21:49.535Z,98101.81
2023-01-23T10:24:50.649Z,98100.81
2023-01-23T10:27:49.794Z,98107.13
2023-01-23T10:30:49.731Z,98110.19
2023-01-23T10:33:51.262Z,98095.00
2023-01-23T10:37:31.445Z,98097.22
2023-01-23T10:40:46.854Z,98110.41
2023-01-23T10:43:51.346Z,98113.44
2023-01-23T10:46:51.270Z,98118.72
2023-01-23T10:49:49.711Z,98105.56
2023-01-23T10:52:46.573Z,98094.81
2023-01-23T10:55:45.689Z,98092.34
2023-01-23T10:58:42.733Z,98095.22
2023-01-23T11:01:42.348Z,98099.25
2023-01-23T11:04:47.005Z,98090.53
2023-01-23T11:07:53.423Z,98081.41
2023-01-23T11:10:50.768Z,98085.28
2023-01-23T11:13:49.687Z,98094.59
2023-01-23T11:16:46.563Z,98079.41
2023-01-23T11:19:45.286Z,98093.59
2023-01-23T11:22:43.433Z,98087.91
2023-01-23T11:25:42.622Z,98088.72
2023-01-23T11:28:49.885Z,98085.88
2023-01-23T11:31:47.631Z,98093.59
2023-01-23T11:34:51.271Z,98082.22
2023-01-23T11:37:48.123Z,98070.06
2023-01-23T11:40:45.004Z,98064.78
2023-01-23T11:43:41.843Z,98069.44
2023-01-23T11:46:57.456Z,98076.56
2023-01-23T11:50:11.723Z,98062.94
2023-01-23T11:53:43.618Z,98060.50
2023-01-23T11:56:59.173Z,98059.31
2023-01-23T12:00:07.844Z,98047.94
2023-01-23T12:03:32.217Z,98053.00
2023-01-23T12:06:39.243Z,98053.59
2023-01-23T12:10:04.520Z,98044.47
2023-01-23T12:13:07.661Z,98049.16
2023-01-23T12:16:41.034Z,98043.25
2023-01-23T12:19:49.775Z,98047.53
2023-01-23T12:23:13.534Z,98039.19
2023-01-23T12:26:15.451Z,98036.56
2023-01-23T12:29:31.000Z,98025.53
2023-01-23T12:32:35.749Z,98011.75
2023-01-23T12:35:54.124Z,98020.72
2023-01-23T12:38:50.772Z,98018.69
2023-01-23T12:42:04.503Z,98036.19
2023-01-23T12:45:04.291Z,98029.66
2023-01-23T12:48:13.268Z,98038.00
2023-01-23T12:51:18.929Z,98022.59
2023-01-23T12:54:22.531Z,98032.91
2023-01-23T12:57:52.356Z,98029.06
2023-01-23T13:01:10.891Z,98026.22
2023-01-23T13:04:25.110Z,98026.38
2023-01-23T13:07:41.980Z,97997.97
2023-01-23T13:11:34.690Z,98003.50
2023-01-23T13:14:36.807Z,97997.75
2023-01-23T13:17:48.616Z,97996.91
2023-01-23T13:21:18.301Z,98000.94
2023-01-23T13:24:40.979Z,98006.25
2023-01-23T13:27:59.943Z,98009.22
2023-01-23T13:31:04.466Z,98023.84
2023-01-23T13:34:15.031Z,98014.94
2023-01-23T13:37:47.561Z,98009.81
2023-01-23T13:41:04.629Z,98009.06
2023-01-23T13:44:18.019Z,98010.84
2023-01-23T14:22:03.767Z,97983.03
2023-01-23T14:25:00.551Z,97973.09
2023-01-23T14:28:05.380Z,97974.28
2023-01-23T14:31:05.163Z,97977.34
2023-01-23T14:34:09.864Z,97982.63
2023-01-23T14:37:10.670Z,97973.53
2023-01-23T14:40:25.674Z,97976.75
2023-01-23T14:43:28.303Z,97978.16
2023-01-23T14:46:40.173Z,97978.78
2023-01-23T14:49:37.247Z,97968.25
2023-01-23T14:52:34.117Z,97977.78
2023-01-23T14:55:32.920Z,97961.75
2023-01-23T14:58:30.497Z,97973.53
2023-01-23T15:01:27.897Z,97982.66
2023-01-23T15:04:28.304Z,97980.44
2023-01-23T15:07:25.089Z,97977.22
2023-01-23T15:10:43.619Z,97971.94
2023-01-23T15:13:44.127Z,97964.22
2023-01-23T15:16:41.912Z,97960.78
2023-01-23T15:19:40.164Z,97972.16
2023-01-23T15:22:38.214Z,97960.78
2023-01-23T15:25:35.013Z,97956.53
2023-01-23T15:28:54.784Z,97952.88
2023-01-23T15:31:53.552Z,97954.88
2023-01-23T15:34:56.126Z,97949.22
2023-01-23T15:37:56.002Z,97952.69
2023-01-23T15:40:52.832Z,97945.19
2023-01-23T15:43:49.605Z,97946.19
2023-01-23T15:46:46.788Z,97955.72
2023-01-23T15:49:43.787Z,97952.47
2023-01-23T15:52:48.486Z,97964.81
2023-01-23T15:55:45.507Z,97966.47
2023-01-23T15:58:42.385Z,97974.16
2023-01-23T16:01:39.176Z,97982.47
2023-01-23T16:04:35.958Z,97989.16
2023-01-23T16:07:34.915Z,97985.09
2023-01-23T16:10:39.139Z,97991.38
2023-01-23T16:13:35.893Z,97999.06
2023-01-23T16:16:32.735Z,98004.16
2023-01-23T16:19:29.541Z,98003.34
2023-01-23T16:22:29.105Z,98010.00
2023-01-23T16:25:43.105Z,98011.25
2023-01-23T16:28:41.272Z,98019.94
2023-01-23T16:31:38.330Z,98024.19
2023-01-23T16:34:35.371Z,98022.38
2023-01-23T16:37:32.589Z,98011.81
2023-01-23T16:40:32.756Z,98017.88
2023-01-23T16:43:29.846Z,98012.81
2023-01-23T16:46:26.627Z,98017.88
2023-01-23T16:49:23.720Z,98017.09
2023-01-23T16:52:22.183Z,98005.34
2023-01-23T16:55:24.105Z,98003.31
2023-01-23T16:58:27.168Z,98012.44
2023-01-23T17:01:24.316Z,98006.75
2023-01-23T17:04:21.918Z,98008.97
2023-01-23T17:07:19.061Z,98015.84
2023-01-23T17:10:17.732Z,98013.22
2023-01-23T17:13:16.057Z,98012.41
2023-01-23T17:16:26.489Z,98010.19
2023-01-23T17:19:30.976Z,98022.94
2023-01-23T17:22:31.969Z,98028.81
2023-01-23T17:25:28.855Z,98021.94
2023-01-23T17:28:25.804Z,98031.06
2023-01-23T17:31:24.629Z,98027.22
2023-01-23T17:34:24.203Z,98034.28
2023-01-23T17:37:22.702Z,98039.97
2023-01-23T17:40:19.963Z,98040.19
2023-01-23T17:43:17.977Z,98041.78
2023-01-23T17:46:23.848Z,98039.16
2023-01-23T17:49:29.349Z,98032.25
2023-01-23T17:52:28.730Z,98043.22
2023-01-23T17:55:28.800Z,98039.97
2023-01-23T17:58:25.949Z,98062.66
2023-01-23T18:01:25.251Z,98066.69
2023-01-23T18:04:22.562Z,98068.94
2023-01-23T18:07:19.345Z,98065.06
2023-01-23T18:10:16.427Z,98079.63
2023-01-23T18:13:30.164Z,98064.84
2023-01-23T18:16:31.947Z,98065.25
2023-01-23T18:19:30.308Z,98077.00
2023-01-23T18:22:27.221Z,98058.56
2023-01-23T18:25:26.239Z,98073.56
2023-01-23T18:28:23.068Z,98058.19
2023-01-23T18:31:43.662Z,98052.09
2023-01-23T18:34:47.663Z,98069.94
2023-01-23T18:38:02.535Z,98057.75
2023-01-23T18:41:31.945Z,98080.66
2023-01-23T18:44:31.490Z,98092.63
2023-01-23T18:47:28.494Z,98088.38
2023-01-23T18:50:27.027Z,98082.47
2023-01-23T18:53:55.556Z,98081.69
2023-01-23T18:57:19.987Z,98088.19
2023-01-23T19:00:37.433Z,98095.63
2023-01-23T19:03:46.641Z,98101.53
2023-01-23T19:06:44.712Z,98092.81
2023-01-23T19:09:46.344Z,98102.94
2023-01-23T19:13:10.560Z,98103.69
2023-01-23T19:16:15.128Z,98099.91
2023-01-23T19:19:35.078Z,98112.03
2023-01-23T19:22:45.552Z,98119.13
2023-01-23T19:25:45.421Z,98138.38
2023-01-23T19:28:42.535Z,98135.94
2023-01-23T19:31:39.852Z,98118.53
2023-01-23T19:34:36.639Z,98127.41
2023-01-23T19:37:33.455Z,98125.81
2023-01-23T19:40:30.231Z,98116.50
2023-01-23T19:43:28.132Z,98124.41
2023-01-23T19:46:29.025Z,98127.59
2023-01-23T19:49:26.008Z,98114.22
2023-01-23T19:52:22.937Z,98127.59
2023-01-23T19:55:32.588Z,98120.13
2023-01-23T19:58:30.948Z,98130.84
2023-01-23T20:01:43.500Z,98128.19
2023-01-23T20:04:40.536Z,98129.47
2023-01-23T20:07:37.754Z,98139.75
2023-01-23T20:10:34.524Z,98137.31
2023-01-23T20:13:31.282Z,98141.78
2023-01-23T20:16:28.468Z,98145.00
2023-01-23T20:19:25.322Z,98138.34
2023-01-23T20:22:22.076Z,98141.19
2023-01-23T20:25:19.212Z,98132.66
2023-01-23T20:28:16.136Z,98159.53
2023-01-23T20:31:14.322Z,98141.72
2023-01-23T20:34:11.133Z,98144.84
2023-01-23T20:37:07.895Z,98158.34
2023-01-23T20:40:05.070Z,98145.19
2023-01-23T20:43:01.856Z,98151.03
2023-01-23T20:45:58.667Z,98142.34
2023-01-23T20:48:55.758Z,98135.44
2023-01-23T20:51:52.535Z,98149.41
2023-01-23T20:54:49.318Z,98144.34
2023-01-23T20:58:04.397Z,98154.06
2023-01-23T21:01:01.263Z,98141.06
2023-01-23T21:03:58.119Z,98155.44
2023-01-23T21:06:55.000Z,98144.75
2023-01-23T21:09:51.795Z,98160.28
2023-01-23T21:12:48.556Z,98171.44
2023-01-23T21:15:55.500Z,98158.88
2023-01-23T21:18:53.423Z,98170.22
2023-01-23T21:21:50.177Z,98167.22
2023-01-23T21:24:47.010Z,98186.22
2023-01-23T21:27:43.755Z,98166.06
2023-01-23T21:30:40.713Z,98171.69
2023-01-23T21:33:38.070Z,98171.50
2023-01-23T21:36:35.019Z,98168.81
2023-01-23T21:39:31.772Z,98177.91
2023-01-23T21:42:28.563Z,98177.47
2023-01-23T21:45:26.033Z,98173.66
2023-01-23T21:48:23.299Z,98160.06
2023-01-23T21:51:21.890Z,98176.28
2023-01-23T21:54:18.665Z,98169.34
2023-01-23T21:57:15.666Z,98171.84
2023-01-23T22:00:31.396Z,98160.84
2023-01-23T22:03:28.187Z,98166.47
2023-01-23T22:06:24.934Z,98172.75
2023-01-23T22:09:24.611Z,98183.72
2023-01-23T22:12:21.422Z,98169.09
2023-01-23T22:15:18.218Z,98164.91
2023-01-23T22:18:14.985Z,98170.00
2023-01-23T22:21:12.124Z,98161.06
2023-01-23T22:24:09.008Z,98165.03
2023-01-23T22:27:05.913Z,98164.09
2023-01-23T22:30:02.682Z,98163.69
2023-01-23T22:32:59.612Z,98160.66
2023-01-23T22:35:56.378Z,98157.41
2023-01-23T22:38:54.575Z,98166.72
2023-01-23T22:41:51.353Z,98161.06
2023-01-23T22:44:48.113Z,98149.78
2023-01-23T22:47:44.843Z,98161.16
2023-01-23T22:50:41.597Z,98155.38
2023-01-23T22:53:38.355Z,98157.19
2023-01-23T22:56:35.128Z,98154.19
2023-01-23T22:59:31.894Z,98153.56
2023-01-23T23:02:28.641Z,98153.59
2023-01-23T23:05:25.410Z,98170.00
2023-01-23T23:08:22.220Z,98156.81
2023-01-23T23:11:24.850Z,98156.16
2023-01-23T23:14:21.615Z,98149.50
2023-01-23T23:17:18.423Z,98151.59
2023-01-23T23:20:15.507Z,98166.28
2023-01-23T23:23:12.259Z,98156.53
2023-01-23T23:26:10.032Z,98150.31
2023-01-23T23:29:06.836Z,98159.03
2023-01-23T23:32:03.662Z,98147.91
2023-01-23T23:35:00.507Z,98138.31
2023-01-23T23:37:57.349Z,98143.44
2023-01-23T23:40:59.101Z,98140.94
2023-01-23T23:43:55.851Z,98136.34
2023-01-23T23:46:52.582Z,98131.69
2023-01-23T23:49:49.337Z,98129.41
2023-01-23T23:52:46.079Z,98134.69
2023-01-23T23:55:42.943Z,98140.97
2023-01-23T23:58:39.749Z,98124.56
